sensor_id;sensor_type;location;lat;lon;timestamp;P1;durP1;ratioP1;P2;durP2;ratioP2
7116;SDS011;3600;48.568;7.870;2022-09-12T00:01:48;4.22;;;3.83;;
7116;SDS011;3600;48.568;7.870;2022-09-12T00:04:15;3.72;;;3.42;;
7116;SDS011;3600;48.568;7.870;2022-09-12T00:06:41;4.07;;;3.70;;
7116;SDS011;3600;48.568;7.870;2022-09-12T00:09:09;4.80;;;3.80;;
7116;SDS011;3600;48.568;7.870;2022-09-12T00:11:39;4.20;;;3.85;;
7116;SDS011;3600;48.568;7.870;2022-09-12T00:14:08;3.70;;;3.35;;
7116;SDS011;3600;48.568;7.870;2022-09-12T00:16:37;4.10;;;3.78;;
7116;SDS011;3600;48.568;7.870;2022-09-12T00:19:05;4.40;;;4.00;;
7116;SDS011;3600;48.568;7.870;2022-09-12T00:21:33;4.97;;;4.57;;
7116;SDS011;3600;48.568;7.870;2022-09-12T00:24:02;5.32;;;4.47;;
7116;SDS011;3600;48.568;7.870;2022-09-12T00:26:30;4.38;;;3.95;;
7116;SDS011;3600;48.568;7.870;2022-09-12T00:28:57;4.50;;;4.10;;
7116;SDS011;3600;48.568;7.870;2022-09-12T00:31:24;3.80;;;3.47;;
7116;SDS011;3600;48.568;7.870;2022-09-12T00:33:54;4.15;;;3.80;;
7116;SDS011;3600;48.568;7.870;2022-09-12T00:36:23;3.97;;;3.58;;
7116;SDS011;3600;48.568;7.870;2022-09-12T00:38:51;4.20;;;3.90;;
7116;SDS011;3600;48.568;7.870;2022-09-12T00:41:21;4.70;;;4.30;;
7116;SDS011;3600;48.568;7.870;2022-09-12T00:43:58;5.97;;;4.10;;
7116;SDS011;3600;48.568;7.870;2022-09-12T00:49:47;4.57;;;4.18;;
7116;SDS011;3600;48.568;7.870;2022-09-12T00:57:35;5.65;;;4.07;;
7116;SDS011;3600;48.568;7.870;2022-09-12T01:00:08;4.20;;;3.80;;
7116;SDS011;3600;48.568;7.870;2022-09-12T01:02:42;5.78;;;4.20;;
7116;SDS011;3600;48.568;7.870;2022-09-12T01:05:10;4.78;;;4.30;;
7116;SDS011;3600;48.568;7.870;2022-09-12T01:07:38;5.72;;;4.45;;
7116;SDS011;3600;48.568;7.870;2022-09-12T01:10:06;5.30;;;4.57;;
7116;SDS011;3600;48.568;7.870;2022-09-12T01:12:36;5.88;;;4.55;;
7116;SDS011;3600;48.568;7.870;2022-09-12T01:15:04;6.47;;;5.50;;
7116;SDS011;3600;48.568;7.870;2022-09-12T01:23:23;6.30;;;5.70;;
7116;SDS011;3600;48.568;7.870;2022-09-12T01:25:59;5.10;;;4.65;;
7116;SDS011;3600;48.568;7.870;2022-09-12T01:31:50;5.88;;;5.38;;
7116;SDS011;3600;48.568;7.870;2022-09-12T01:37:28;5.80;;;5.30;;
7116;SDS011;3600;48.568;7.870;2022-09-12T01:43:00;5.25;;;4.70;;
7116;SDS011;3600;48.568;7.870;2022-09-12T01:45:38;5.90;;;5.43;;
7116;SDS011;3600;48.568;7.870;2022-09-12T01:48:16;5.90;;;5.43;;
7116;SDS011;3600;48.568;7.870;2022-09-12T01:50:49;6.50;;;5.40;;
7116;SDS011;3600;48.568;7.870;2022-09-12T01:53:19;5.50;;;5.00;;
7116;SDS011;3600;48.568;7.870;2022-09-12T01:56:02;5.93;;;5.05;;
7116;SDS011;3600;48.568;7.870;2022-09-12T01:58:37;5.40;;;4.93;;
7116;SDS011;3600;48.568;7.870;2022-09-12T02:01:10;5.18;;;4.78;;
7116;SDS011;3600;48.568;7.870;2022-09-12T02:03:42;6.25;;;5.65;;
7116;SDS011;3600;48.568;7.870;2022-09-12T02:06:17;7.43;;;5.68;;
7116;SDS011;3600;48.568;7.870;2022-09-12T02:09:00;6.13;;;5.20;;
7116;SDS011;3600;48.568;7.870;2022-09-12T02:11:30;4.93;;;4.53;;
7116;SDS011;3600;48.568;7.870;2022-09-12T02:14:02;5.70;;;5.20;;
7116;SDS011;3600;48.568;7.870;2022-09-12T02:16:35;5.72;;;5.22;;
7116;SDS011;3600;48.568;7.870;2022-09-12T02:19:10;5.00;;;4.60;;
7116;SDS011;3600;48.568;7.870;2022-09-12T02:21:42;4.45;;;4.05;;
7116;SDS011;3600;48.568;7.870;2022-09-12T02:24:19;5.18;;;4.68;;
7116;SDS011;3600;48.568;7.870;2022-09-12T02:26:51;5.28;;;4.60;;
7116;SDS011;3600;48.568;7.870;2022-09-12T02:29:21;5.18;;;4.72;;
7116;SDS011;3600;48.568;7.870;2022-09-12T02:31:48;5.65;;;5.15;;
7116;SDS011;3600;48.568;7.870;2022-09-12T02:34:26;5.78;;;5.18;;
7116;SDS011;3600;48.568;7.870;2022-09-12T02:39:46;5.38;;;4.88;;
7116;SDS011;3600;48.568;7.870;2022-09-12T02:42:13;5.22;;;4.78;;
7116;SDS011;3600;48.568;7.870;2022-09-12T02:44:39;5.30;;;4.80;;
7116;SDS011;3600;48.568;7.870;2022-09-12T02:47:13;5.22;;;4.78;;
7116;SDS011;3600;48.568;7.870;2022-09-12T02:49:53;5.80;;;4.75;;
7116;SDS011;3600;48.568;7.870;2022-09-12T02:52:21;4.95;;;4.45;;
7116;SDS011;3600;48.568;7.870;2022-09-12T02:54:48;4.68;;;4.28;;
7116;SDS011;3600;48.568;7.870;2022-09-12T02:57:20;5.60;;;5.03;;
7116;SDS011;3600;48.568;7.870;2022-09-12T02:59:48;5.18;;;4.78;;
7116;SDS011;3600;48.568;7.870;2022-09-12T03:05:11;5.85;;;5.30;;
7116;SDS011;3600;48.568;7.870;2022-09-12T03:07:59;6.93;;;4.90;;
7116;SDS011;3600;48.568;7.870;2022-09-12T03:16:21;5.63;;;5.03;;
7116;SDS011;3600;48.568;7.870;2022-09-12T03:21:57;5.35;;;4.85;;
7116;SDS011;3600;48.568;7.870;2022-09-12T03:30:02;5.25;;;4.32;;
7116;SDS011;3600;48.568;7.870;2022-09-12T03:32:40;5.63;;;5.10;;
7116;SDS011;3600;48.568;7.870;2022-09-12T03:35:09;7.07;;;5.13;;
7116;SDS011;3600;48.568;7.870;2022-09-12T03:37:37;6.32;;;5.30;;
7116;SDS011;3600;48.568;7.870;2022-09-12T03:40:06;5.85;;;5.32;;
7116;SDS011;3600;48.568;7.870;2022-09-12T03:42:34;6.70;;;5.25;;
7116;SDS011;3600;48.568;7.870;2022-09-12T03:45:01;4.90;;;4.50;;
7116;SDS011;3600;48.568;7.870;2022-09-12T03:47:28;5.80;;;5.30;;
7116;SDS011;3600;48.568;7.870;2022-09-12T03:49:55;6.72;;;5.20;;
7116;SDS011;3600;48.568;7.870;2022-09-12T03:52:21;5.32;;;4.78;;
7116;SDS011;3600;48.568;7.870;2022-09-12T03:54:48;5.25;;;4.82;;
7116;SDS011;3600;48.568;7.870;2022-09-12T03:57:15;5.22;;;4.78;;
7116;SDS011;3600;48.568;7.870;2022-09-12T03:59:42;5.05;;;4.57;;
7116;SDS011;3600;48.568;7.870;2022-09-12T04:02:08;6.28;;;4.38;;
7116;SDS011;3600;48.568;7.870;2022-09-12T04:04:41;6.00;;;5.18;;
7116;SDS011;3600;48.568;7.870;2022-09-12T04:07:11;5.50;;;4.93;;
7116;SDS011;3600;48.568;7.870;2022-09-12T04:09:38;5.07;;;4.65;;
7116;SDS011;3600;48.568;7.870;2022-09-12T04:12:04;5.07;;;4.68;;
7116;SDS011;3600;48.568;7.870;2022-09-12T04:14:31;5.65;;;4.68;;
7116;SDS011;3600;48.568;7.870;2022-09-12T04:16:59;4.40;;;4.00;;
7116;SDS011;3600;48.568;7.870;2022-09-12T04:19:26;5.50;;;4.32;;
7116;SDS011;3600;48.568;7.870;2022-09-12T04:21:53;4.32;;;4.03;;
7116;SDS011;3600;48.568;7.870;2022-09-12T04:24:19;4.55;;;4.15;;
7116;SDS011;3600;48.568;7.870;2022-09-12T04:26:46;4.53;;;4.13;;
7116;SDS011;3600;48.568;7.870;2022-09-12T04:29:13;4.13;;;3.83;;
7116;SDS011;3600;48.568;7.870;2022-09-12T04:31:40;4.35;;;4.03;;
7116;SDS011;3600;48.568;7.870;2022-09-12T04:34:07;4.43;;;4.13;;
7116;SDS011;3600;48.568;7.870;2022-09-12T04:36:34;4.45;;;4.15;;
7116;SDS011;3600;48.568;7.870;2022-09-12T04:39:01;5.60;;;4.45;;
7116;SDS011;3600;48.568;7.870;2022-09-12T04:41:30;4.40;;;4.10;;
7116;SDS011;3600;48.568;7.870;2022-09-12T04:44:00;4.32;;;4.03;;
7116;SDS011;3600;48.568;7.870;2022-09-12T04:46:30;4.30;;;3.92;;
7116;SDS011;3600;48.568;7.870;2022-09-12T04:48:58;4.03;;;3.65;;
7116;SDS011;3600;48.568;7.870;2022-09-12T04:51:35;4.22;;;3.92;;
7116;SDS011;3600;48.568;7.870;2022-09-12T04:54:05;4.78;;;4.28;;
7116;SDS011;3600;48.568;7.870;2022-09-12T04:56:36;5.85;;;4.38;;
7116;SDS011;3600;48.568;7.870;2022-09-12T04:59:06;4.90;;;4.38;;
7116;SDS011;3600;48.568;7.870;2022-09-12T05:01:34;5.03;;;4.40;;
7116;SDS011;3600;48.568;7.870;2022-09-12T05:04:01;5.50;;;5.00;;
7116;SDS011;3600;48.568;7.870;2022-09-12T05:06:30;5.75;;;5.15;;
7116;SDS011;3600;48.568;7.870;2022-09-12T05:09:00;5.57;;;5.03;;
7116;SDS011;3600;48.568;7.870;2022-09-12T05:11:29;5.40;;;4.65;;
7116;SDS011;3600;48.568;7.870;2022-09-12T05:14:18;5.28;;;4.70;;
7116;SDS011;3600;48.568;7.870;2022-09-12T05:16:45;3.80;;;3.50;;
7116;SDS011;3600;48.568;7.870;2022-09-12T05:19:14;4.57;;;4.18;;
7116;SDS011;3600;48.568;7.870;2022-09-12T05:21:41;4.68;;;3.95;;
7116;SDS011;3600;48.568;7.870;2022-09-12T05:24:08;4.78;;;4.38;;
7116;SDS011;3600;48.568;7.870;2022-09-12T05:26:36;4.63;;;4.20;;
7116;SDS011;3600;48.568;7.870;2022-09-12T05:29:03;4.38;;;3.97;;
7116;SDS011;3600;48.568;7.870;2022-09-12T05:31:32;6.88;;;4.35;;
7116;SDS011;3600;48.568;7.870;2022-09-12T05:33:59;4.32;;;4.03;;
7116;SDS011;3600;48.568;7.870;2022-09-12T05:36:29;4.88;;;4.47;;
7116;SDS011;3600;48.568;7.870;2022-09-12T05:38:56;4.50;;;4.20;;
7116;SDS011;3600;48.568;7.870;2022-09-12T05:41:25;4.72;;;4.32;;
7116;SDS011;3600;48.568;7.870;2022-09-12T05:43:59;5.03;;;4.53;;
7116;SDS011;3600;48.568;7.870;2022-09-12T05:46:28;6.05;;;4.82;;
7116;SDS011;3600;48.568;7.870;2022-09-12T05:49:01;5.80;;;5.20;;
7116;SDS011;3600;48.568;7.870;2022-09-12T05:51:30;6.70;;;5.22;;
7116;SDS011;3600;48.568;7.870;2022-09-12T05:54:00;5.70;;;5.13;;
7116;SDS011;3600;48.568;7.870;2022-09-12T05:56:31;6.47;;;5.88;;
7116;SDS011;3600;48.568;7.870;2022-09-12T05:59:01;10.23;;;5.57;;
7116;SDS011;3600;48.568;7.870;2022-09-12T06:01:30;5.88;;;5.30;;
7116;SDS011;3600;48.568;7.870;2022-09-12T06:03:59;5.15;;;4.65;;
7116;SDS011;3600;48.568;7.870;2022-09-12T06:06:28;4.85;;;4.38;;
7116;SDS011;3600;48.568;7.870;2022-09-12T06:08:56;5.63;;;5.07;;
7116;SDS011;3600;48.568;7.870;2022-09-12T06:11:25;5.55;;;4.90;;
7116;SDS011;3600;48.568;7.870;2022-09-12T06:13:54;5.38;;;4.88;;
7116;SDS011;3600;48.568;7.870;2022-09-12T06:16:27;5.63;;;5.13;;
7116;SDS011;3600;48.568;7.870;2022-09-12T06:18:59;5.57;;;5.13;;
7116;SDS011;3600;48.568;7.870;2022-09-12T06:21:28;5.57;;;5.07;;
7116;SDS011;3600;48.568;7.870;2022-09-12T06:23:56;6.72;;;4.90;;
7116;SDS011;3600;48.568;7.870;2022-09-12T06:26:26;6.82;;;6.13;;
7116;SDS011;3600;48.568;7.870;2022-09-12T06:28:54;5.65;;;5.10;;
7116;SDS011;3600;48.568;7.870;2022-09-12T06:31:33;6.40;;;5.30;;
7116;SDS011;3600;48.568;7.870;2022-09-12T06:34:02;6.13;;;5.40;;
7116;SDS011;3600;48.568;7.870;2022-09-12T06:36:36;6.18;;;5.35;;
7116;SDS011;3600;48.568;7.870;2022-09-12T06:39:05;7.95;;;5.40;;
7116;SDS011;3600;48.568;7.870;2022-09-12T06:41:35;5.55;;;5.05;;
7116;SDS011;3600;48.568;7.870;2022-09-12T06:44:09;6.10;;;5.60;;
7116;SDS011;3600;48.568;7.870;2022-09-12T06:46:38;6.32;;;5.72;;
7116;SDS011;3600;48.568;7.870;2022-09-12T06:49:05;6.32;;;5.72;;
7116;SDS011;3600;48.568;7.870;2022-09-12T06:51:31;6.00;;;5.40;;
7116;SDS011;3600;48.568;7.870;2022-09-12T06:53:58;6.63;;;5.70;;
7116;SDS011;3600;48.568;7.870;2022-09-12T06:56:26;6.15;;;5.60;;
7116;SDS011;3600;48.568;7.870;2022-09-12T06:58:56;6.68;;;5.93;;
7116;SDS011;3600;48.568;7.870;2022-09-12T07:01:25;6.82;;;5.55;;
7116;SDS011;3600;48.568;7.870;2022-09-12T07:03:57;6.70;;;6.07;;
7116;SDS011;3600;48.568;7.870;2022-09-12T07:06:26;8.25;;;6.07;;
7116;SDS011;3600;48.568;7.870;2022-09-12T07:08:57;7.13;;;5.72;;
7116;SDS011;3600;48.568;7.870;2022-09-12T07:11:26;7.82;;;7.13;;
7116;SDS011;3600;48.568;7.870;2022-09-12T07:13:57;7.07;;;6.38;;
7116;SDS011;3600;48.568;7.870;2022-09-12T07:16:25;9.18;;;7.65;;
7116;SDS011;3600;48.568;7.870;2022-09-12T07:18:54;10.02;;;9.02;;
7116;SDS011;3600;48.568;7.870;2022-09-12T07:21:22;9.90;;;8.38;;
7116;SDS011;3600;48.568;7.870;2022-09-12T07:23:49;8.88;;;7.97;;
7116;SDS011;3600;48.568;7.870;2022-09-12T07:26:22;9.57;;;7.75;;
7116;SDS011;3600;48.568;7.870;2022-09-12T07:28:50;8.27;;;7.40;;
7116;SDS011;3600;48.568;7.870;2022-09-12T07:31:20;8.40;;;7.60;;
7116;SDS011;3600;48.568;7.870;2022-09-12T07:33:49;10.80;;;8.25;;
7116;SDS011;3600;48.568;7.870;2022-09-12T07:36:20;11.18;;;8.77;;
7116;SDS011;3600;48.568;7.870;2022-09-12T07:38:56;8.93;;;8.13;;
7116;SDS011;3600;48.568;7.870;2022-09-12T07:41:24;9.68;;;8.73;;
7116;SDS011;3600;48.568;7.870;2022-09-12T07:43:53;10.13;;;9.07;;
7116;SDS011;3600;48.568;7.870;2022-09-12T07:46:22;9.40;;;8.48;;
7116;SDS011;3600;48.568;7.870;2022-09-12T07:48:50;9.57;;;8.63;;
7116;SDS011;3600;48.568;7.870;2022-09-12T07:51:18;9.73;;;8.80;;
7116;SDS011;3600;48.568;7.870;2022-09-12T07:53:45;8.80;;;7.90;;
7116;SDS011;3600;48.568;7.870;2022-09-12T07:56:14;9.23;;;8.30;;
7116;SDS011;3600;48.568;7.870;2022-09-12T07:58:42;11.30;;;8.35;;
7116;SDS011;3600;48.568;7.870;2022-09-12T08:01:16;9.13;;;8.27;;
7116;SDS011;3600;48.568;7.870;2022-09-12T08:03:48;9.73;;;7.85;;
7116;SDS011;3600;48.568;7.870;2022-09-12T08:06:19;11.73;;;9.05;;
7116;SDS011;3600;48.568;7.870;2022-09-12T08:08:49;11.15;;;8.93;;
7116;SDS011;3600;48.568;7.870;2022-09-12T08:11:18;9.30;;;8.38;;
7116;SDS011;3600;48.568;7.870;2022-09-12T08:13:46;8.95;;;8.15;;
7116;SDS011;3600;48.568;7.870;2022-09-12T08:16:20;10.75;;;7.95;;
7116;SDS011;3600;48.568;7.870;2022-09-12T08:18:51;8.55;;;7.85;;
7116;SDS011;3600;48.568;7.870;2022-09-12T08:21:22;8.85;;;7.70;;
7116;SDS011;3600;48.568;7.870;2022-09-12T08:23:54;9.23;;;7.40;;
7116;SDS011;3600;48.568;7.870;2022-09-12T08:26:22;8.07;;;7.38;;
7116;SDS011;3600;48.568;7.870;2022-09-12T08:28:49;8.32;;;6.82;;
7116;SDS011;3600;48.568;7.870;2022-09-12T08:31:17;7.57;;;6.13;;
7116;SDS011;3600;48.568;7.870;2022-09-12T08:33:45;6.30;;;5.70;;
7116;SDS011;3600;48.568;7.870;2022-09-12T08:36:16;5.85;;;5.30;;
7116;SDS011;3600;48.568;7.870;2022-09-12T08:38:46;6.50;;;5.80;;
7116;SDS011;3600;48.568;7.870;2022-09-12T08:46:33;5.43;;;4.93;;
7116;SDS011;3600;48.568;7.870;2022-09-12T08:49:28;5.47;;;4.97;;
7116;SDS011;3600;48.568;7.870;2022-09-12T08:52:03;6.05;;;5.45;;
7116;SDS011;3600;48.568;7.870;2022-09-12T08:54:36;5.25;;;4.70;;
7116;SDS011;3600;48.568;7.870;2022-09-12T08:57:04;4.68;;;4.13;;
7116;SDS011;3600;48.568;7.870;2022-09-12T08:59:35;4.63;;;4.32;;
7116;SDS011;3600;48.568;7.870;2022-09-12T09:02:39;4.85;;;4.28;;
7116;SDS011;3600;48.568;7.870;2022-09-12T09:08:34;4.47;;;4.07;;
7116;SDS011;3600;48.568;7.870;2022-09-12T09:11:14;4.53;;;4.05;;
7116;SDS011;3600;48.568;7.870;2022-09-12T09:17:40;5.35;;;4.43;;
7116;SDS011;3600;48.568;7.870;2022-09-12T09:20:25;4.30;;;4.00;;
7116;SDS011;3600;48.568;7.870;2022-09-12T09:25:36;4.05;;;3.78;;
7116;SDS011;3600;48.568;7.870;2022-09-12T09:28:04;4.00;;;3.70;;
7116;SDS011;3600;48.568;7.870;2022-09-12T09:30:37;5.10;;;4.70;;
7116;SDS011;3600;48.568;7.870;2022-09-12T09:33:08;4.63;;;4.28;;
7116;SDS011;3600;48.568;7.870;2022-09-12T09:35:44;4.38;;;3.97;;
7116;SDS011;3600;48.568;7.870;2022-09-12T09:38:21;4.25;;;3.88;;
7116;SDS011;3600;48.568;7.870;2022-09-12T09:43:52;4.10;;;3.70;;
7116;SDS011;3600;48.568;7.870;2022-09-12T09:46:19;4.05;;;3.75;;
7116;SDS011;3600;48.568;7.870;2022-09-12T09:48:47;4.10;;;3.80;;
7116;SDS011;3600;48.568;7.870;2022-09-12T09:51:37;4.43;;;4.10;;
7116;SDS011;3600;48.568;7.870;2022-09-12T09:54:22;4.93;;;3.70;;
7116;SDS011;3600;48.568;7.870;2022-09-12T09:56:53;4.10;;;3.70;;
7116;SDS011;3600;48.568;7.870;2022-09-12T09:59:28;3.50;;;3.30;;
7116;SDS011;3600;48.568;7.870;2022-09-12T10:01:57;3.78;;;3.47;;
7116;SDS011;3600;48.568;7.870;2022-09-12T10:04:30;4.03;;;3.50;;
7116;SDS011;3600;48.568;7.870;2022-09-12T10:07:05;3.38;;;3.17;;
7116;SDS011;3600;48.568;7.870;2022-09-12T10:09:42;3.83;;;3.53;;
7116;SDS011;3600;48.568;7.870;2022-09-12T10:12:31;5.07;;;3.70;;
7116;SDS011;3600;48.568;7.870;2022-09-12T10:14:59;4.32;;;3.13;;
7116;SDS011;3600;48.568;7.870;2022-09-12T10:17:29;3.25;;;3.05;;
7116;SDS011;3600;48.568;7.870;2022-09-12T10:20:04;4.30;;;3.35;;
7116;SDS011;3600;48.568;7.870;2022-09-12T10:23:00;3.40;;;3.10;;
7116;SDS011;3600;48.568;7.870;2022-09-12T10:25:32;3.42;;;3.13;;
7116;SDS011;3600;48.568;7.870;2022-09-12T10:27:58;3.42;;;3.22;;
7116;SDS011;3600;48.568;7.870;2022-09-12T10:30:27;3.38;;;3.00;;
7116;SDS011;3600;48.568;7.870;2022-09-12T10:32:56;3.45;;;2.85;;
7116;SDS011;3600;48.568;7.870;2022-09-12T10:35:30;3.10;;;2.90;;
7116;SDS011;3600;48.568;7.870;2022-09-12T10:38:25;3.20;;;2.90;;
7116;SDS011;3600;48.568;7.870;2022-09-12T10:41:05;4.13;;;2.88;;
7116;SDS011;3600;48.568;7.870;2022-09-12T10:43:35;3.28;;;3.08;;
7116;SDS011;3600;48.568;7.870;2022-09-12T10:48:43;3.28;;;3.08;;
7116;SDS011;3600;48.568;7.870;2022-09-12T10:54:11;3.00;;;2.80;;
7116;SDS011;3600;48.568;7.870;2022-09-12T10:56:38;2.85;;;2.65;;
7116;SDS011;3600;48.568;7.870;2022-09-12T11:02:14;2.90;;;2.70;;
7116;SDS011;3600;48.568;7.870;2022-09-12T11:07:55;3.38;;;2.78;;
7116;SDS011;3600;48.568;7.870;2022-09-12T11:10:35;2.33;;;2.22;;
7116;SDS011;3600;48.568;7.870;2022-09-12T11:13:42;2.63;;;2.47;;
7116;SDS011;3600;48.568;7.870;2022-09-12T11:34:45;4.38;;;2.65;;
7116;SDS011;3600;48.568;7.870;2022-09-12T11:40:52;2.10;;;2.00;;
7116;SDS011;3600;48.568;7.870;2022-09-12T11:46:08;1.70;;;1.60;;
7116;SDS011;3600;48.568;7.870;2022-09-12T11:48:54;1.55;;;1.45;;
7116;SDS011;3600;48.568;7.870;2022-09-12T11:51:24;1.50;;;1.40;;
7116;SDS011;3600;48.568;7.870;2022-09-12T11:56:54;1.52;;;1.42;;
7116;SDS011;3600;48.568;7.870;2022-09-12T12:02:22;1.77;;;1.63;;
7116;SDS011;3600;48.568;7.870;2022-09-12T12:04:58;1.70;;;1.60;;
7116;SDS011;3600;48.568;7.870;2022-09-12T12:07:28;2.17;;;1.52;;
7116;SDS011;3600;48.568;7.870;2022-09-12T12:10:30;1.35;;;1.25;;
7116;SDS011;3600;48.568;7.870;2022-09-12T12:13:06;1.23;;;1.20;;
7116;SDS011;3600;48.568;7.870;2022-09-12T12:15:44;1.38;;;1.30;;
7116;SDS011;3600;48.568;7.870;2022-09-12T12:18:17;0.75;;;0.75;;
7116;SDS011;3600;48.568;7.870;2022-09-12T12:20:49;2.50;;;1.05;;
7116;SDS011;3600;48.568;7.870;2022-09-12T12:25:51;1.13;;;1.13;;
7116;SDS011;3600;48.568;7.870;2022-09-12T12:31:16;1.52;;;1.05;;
7116;SDS011;3600;48.568;7.870;2022-09-12T12:36:32;0.80;;;0.80;;
7116;SDS011;3600;48.568;7.870;2022-09-12T12:39:10;1.10;;;1.00;;
7116;SDS011;3600;48.568;7.870;2022-09-12T12:41:58;0.85;;;0.85;;
7116;SDS011;3600;48.568;7.870;2022-09-12T12:47:22;0.90;;;0.90;;
7116;SDS011;3600;48.568;7.870;2022-09-12T12:50:11;0.80;;;0.80;;
7116;SDS011;3600;48.568;7.870;2022-09-12T12:52:49;0.80;;;0.80;;
7116;SDS011;3600;48.568;7.870;2022-09-12T12:58:07;0.93;;;0.77;;
7116;SDS011;3600;48.568;7.870;2022-09-12T13:03:42;1.00;;;1.00;;
7116;SDS011;3600;48.568;7.870;2022-09-12T13:06:21;0.80;;;0.80;;
7116;SDS011;3600;48.568;7.870;2022-09-12T13:09:03;1.02;;;1.00;;
7116;SDS011;3600;48.568;7.870;2022-09-12T13:11:46;1.65;;;1.10;;
7116;SDS011;3600;48.568;7.870;2022-09-12T13:17:22;1.02;;;0.95;;
7116;SDS011;3600;48.568;7.870;2022-09-12T13:19:52;1.83;;;0.90;;
7116;SDS011;3600;48.568;7.870;2022-09-12T13:22:53;1.75;;;1.13;;
7116;SDS011;3600;48.568;7.870;2022-09-12T13:25:24;1.00;;;1.00;;
7116;SDS011;3600;48.568;7.870;2022-09-12T13:39:19;0.98;;;0.90;;
7116;SDS011;3600;48.568;7.870;2022-09-12T13:47:41;1.00;;;0.90;;
7116;SDS011;3600;48.568;7.870;2022-09-12T13:50:26;1.20;;;1.10;;
7116;SDS011;3600;48.568;7.870;2022-09-12T13:53:08;2.15;;;1.23;;
7116;SDS011;3600;48.568;7.870;2022-09-12T13:55:48;1.10;;;1.00;;
7116;SDS011;3600;48.568;7.870;2022-09-12T13:58:27;0.82;;;0.82;;
7116;SDS011;3600;48.568;7.870;2022-09-12T14:01:56;1.67;;;1.10;;
7116;SDS011;3600;48.568;7.870;2022-09-12T14:04:17;0.90;;;0.90;;
7116;SDS011;3600;48.568;7.870;2022-09-12T14:09:51;0.70;;;0.70;;
7116;SDS011;3600;48.568;7.870;2022-09-12T14:12:53;1.05;;;0.75;;
7116;SDS011;3600;48.568;7.870;2022-09-12T14:15:16;1.00;;;1.00;;
7116;SDS011;3600;48.568;7.870;2022-09-12T14:17:49;1.00;;;1.00;;
7116;SDS011;3600;48.568;7.870;2022-09-12T14:20:18;0.80;;;0.80;;
7116;SDS011;3600;48.568;7.870;2022-09-12T14:22:51;1.52;;;0.82;;
7116;SDS011;3600;48.568;7.870;2022-09-12T14:25:19;1.13;;;1.00;;
7116;SDS011;3600;48.568;7.870;2022-09-12T14:27:51;1.10;;;1.00;;
7116;SDS011;3600;48.568;7.870;2022-09-12T14:30:27;1.02;;;1.02;;
7116;SDS011;3600;48.568;7.870;2022-09-12T14:33:14;0.90;;;0.90;;
7116;SDS011;3600;48.568;7.870;2022-09-12T14:35:45;1.27;;;0.98;;
7116;SDS011;3600;48.568;7.870;2022-09-12T14:40:41;1.23;;;0.88;;
7116;SDS011;3600;48.568;7.870;2022-09-12T14:43:17;0.90;;;0.90;;
7116;SDS011;3600;48.568;7.870;2022-09-12T14:46:00;0.70;;;0.70;;
7116;SDS011;3600;48.568;7.870;2022-09-12T14:48:29;1.35;;;1.05;;
7116;SDS011;3600;48.568;7.870;2022-09-12T14:50:59;0.90;;;0.90;;
7116;SDS011;3600;48.568;7.870;2022-09-12T14:53:31;1.00;;;1.00;;
7116;SDS011;3600;48.568;7.870;2022-09-12T14:56:05;0.75;;;0.73;;
7116;SDS011;3600;48.568;7.870;2022-09-12T14:58:36;1.30;;;0.88;;
7116;SDS011;3600;48.568;7.870;2022-09-12T15:03:32;0.77;;;0.70;;
7116;SDS011;3600;48.568;7.870;2022-09-12T15:06:00;0.93;;;0.93;;
7116;SDS011;3600;48.568;7.870;2022-09-12T15:08:30;1.65;;;0.85;;
7116;SDS011;3600;48.568;7.870;2022-09-12T15:10:57;2.65;;;1.70;;
7116;SDS011;3600;48.568;7.870;2022-09-12T15:13:25;0.82;;;0.82;;
7116;SDS011;3600;48.568;7.870;2022-09-12T15:15:57;1.92;;;1.00;;
7116;SDS011;3600;48.568;7.870;2022-09-12T15:18:25;0.70;;;0.70;;
7116;SDS011;3600;48.568;7.870;2022-09-12T15:20:54;1.02;;;0.90;;
7116;SDS011;3600;48.568;7.870;2022-09-12T15:26:01;1.27;;;1.17;;
7116;SDS011;3600;48.568;7.870;2022-09-12T15:28:28;1.05;;;0.93;;
7116;SDS011;3600;48.568;7.870;2022-09-12T15:30:56;1.40;;;1.10;;
7116;SDS011;3600;48.568;7.870;2022-09-12T15:33:29;1.67;;;0.98;;
7116;SDS011;3600;48.568;7.870;2022-09-12T15:35:56;0.90;;;0.90;;
7116;SDS011;3600;48.568;7.870;2022-09-12T15:38:23;1.65;;;0.93;;
7116;SDS011;3600;48.568;7.870;2022-09-12T15:40:51;0.80;;;0.80;;
7116;SDS011;3600;48.568;7.870;2022-09-12T15:43:19;0.82;;;0.82;;
7116;SDS011;3600;48.568;7.870;2022-09-12T15:45:48;0.90;;;0.90;;
7116;SDS011;3600;48.568;7.870;2022-09-12T15:48:17;1.15;;;0.90;;
7116;SDS011;3600;48.568;7.870;2022-09-12T15:50:44;0.70;;;0.70;;
7116;SDS011;3600;48.568;7.870;2022-09-12T15:53:12;1.10;;;1.00;;
7116;SDS011;3600;48.568;7.870;2022-09-12T15:55:41;0.95;;;0.95;;
7116;SDS011;3600;48.568;7.870;2022-09-12T15:58:09;1.67;;;0.90;;
7116;SDS011;3600;48.568;7.870;2022-09-12T16:00:35;2.28;;;0.88;;
7116;SDS011;3600;48.568;7.870;2022-09-12T16:03:02;0.80;;;0.80;;
7116;SDS011;3600;48.568;7.870;2022-09-12T16:05:30;1.30;;;1.20;;
7116;SDS011;3600;48.568;7.870;2022-09-12T16:07:56;1.23;;;1.05;;
7116;SDS011;3600;48.568;7.870;2022-09-12T16:10:25;1.13;;;1.13;;
7116;SDS011;3600;48.568;7.870;2022-09-12T16:12:54;1.52;;;1.42;;
7116;SDS011;3600;48.568;7.870;2022-09-12T16:15:22;2.35;;;1.35;;
7116;SDS011;3600;48.568;7.870;2022-09-12T16:17:50;0.80;;;0.80;;
7116;SDS011;3600;48.568;7.870;2022-09-12T16:20:17;0.80;;;0.80;;
7116;SDS011;3600;48.568;7.870;2022-09-12T16:22:44;1.38;;;1.27;;
7116;SDS011;3600;48.568;7.870;2022-09-12T16:25:11;2.03;;;1.08;;
7116;SDS011;3600;48.568;7.870;2022-09-12T16:27:38;1.00;;;1.00;;
7116;SDS011;3600;48.568;7.870;2022-09-12T16:30:05;1.02;;;1.00;;
7116;SDS011;3600;48.568;7.870;2022-09-12T16:32:32;2.15;;;1.10;;
7116;SDS011;3600;48.568;7.870;2022-09-12T16:34:59;1.17;;;1.10;;
7116;SDS011;3600;48.568;7.870;2022-09-12T16:37:27;1.60;;;0.80;;
7116;SDS011;3600;48.568;7.870;2022-09-12T16:39:54;1.27;;;1.00;;
7116;SDS011;3600;48.568;7.870;2022-09-12T16:42:21;1.00;;;0.90;;
7116;SDS011;3600;48.568;7.870;2022-09-12T16:44:48;1.65;;;0.88;;
7116;SDS011;3600;48.568;7.870;2022-09-12T16:47:14;1.02;;;1.02;;
7116;SDS011;3600;48.568;7.870;2022-09-12T16:49:41;1.10;;;1.10;;
7116;SDS011;3600;48.568;7.870;2022-09-12T16:52:08;1.05;;;1.05;;
7116;SDS011;3600;48.568;7.870;2022-09-12T16:54:35;1.42;;;1.15;;
7116;SDS011;3600;48.568;7.870;2022-09-12T16:57:02;4.50;;;1.40;;
7116;SDS011;3600;48.568;7.870;2022-09-12T16:59:30;0.93;;;0.90;;
7116;SDS011;3600;48.568;7.870;2022-09-12T17:01:57;2.00;;;0.90;;
7116;SDS011;3600;48.568;7.870;2022-09-12T17:04:24;0.90;;;0.90;;
7116;SDS011;3600;48.568;7.870;2022-09-12T17:06:50;3.72;;;1.10;;
7116;SDS011;3600;48.568;7.870;2022-09-12T17:09:17;1.05;;;1.00;;
7116;SDS011;3600;48.568;7.870;2022-09-12T17:11:44;1.38;;;1.17;;
7116;SDS011;3600;48.568;7.870;2022-09-12T17:14:12;1.20;;;1.20;;
7116;SDS011;3600;48.568;7.870;2022-09-12T17:16:40;1.60;;;1.42;;
7116;SDS011;3600;48.568;7.870;2022-09-12T17:19:17;2.95;;;1.33;;
7116;SDS011;3600;48.568;7.870;2022-09-12T17:21:46;2.28;;;1.35;;
7116;SDS011;3600;48.568;7.870;2022-09-12T17:24:15;3.42;;;1.65;;
7116;SDS011;3600;48.568;7.870;2022-09-12T17:26:43;2.65;;;1.58;;
7116;SDS011;3600;48.568;7.870;2022-09-12T17:29:10;1.30;;;1.20;;
7116;SDS011;3600;48.568;7.870;2022-09-12T17:31:39;1.70;;;1.20;;
7116;SDS011;3600;48.568;7.870;2022-09-12T17:34:07;2.60;;;1.17;;
7116;SDS011;3600;48.568;7.870;2022-09-12T17:36:34;2.97;;;1.42;;
7116;SDS011;3600;48.568;7.870;2022-09-12T17:39:02;2.85;;;1.40;;
7116;SDS011;3600;48.568;7.870;2022-09-12T17:41:29;2.60;;;1.50;;
7116;SDS011;3600;48.568;7.870;2022-09-12T17:44:00;1.50;;;1.40;;
7116;SDS011;3600;48.568;7.870;2022-09-12T17:46:32;2.45;;;1.30;;
7116;SDS011;3600;48.568;7.870;2022-09-12T17:49:04;1.73;;;1.63;;
7116;SDS011;3600;48.568;7.870;2022-09-12T17:51:33;1.60;;;1.50;;
7116;SDS011;3600;48.568;7.870;2022-09-12T17:54:01;1.80;;;1.70;;
7116;SDS011;3600;48.568;7.870;2022-09-12T17:56:33;1.60;;;1.50;;
7116;SDS011;3600;48.568;7.870;2022-09-12T17:59:02;3.75;;;1.80;;
7116;SDS011;3600;48.568;7.870;2022-09-12T18:01:30;2.60;;;1.67;;
7116;SDS011;3600;48.568;7.870;2022-09-12T18:04:16;6.85;;;2.42;;
7116;SDS011;3600;48.568;7.870;2022-09-12T18:06:43;15.68;;;2.85;;
7116;SDS011;3600;48.568;7.870;2022-09-12T18:09:15;19.98;;;2.70;;
7116;SDS011;3600;48.568;7.870;2022-09-12T18:11:43;14.52;;;3.30;;
7116;SDS011;3600;48.568;7.870;2022-09-12T18:14:10;11.13;;;2.53;;